Time;durP1;ratioP1;P1;durP2;ratioP2;P2;SDS_P1;SDS_P2;PMS_P1;PMS_P2;Temp;Humidity;BMP_temperature;BMP_pressure;BME280_temperature;BME280_humidity;BME280_pressure;Samples;Min_cycle;Max_cycle;Signal;HPM_P1;HPM_P2
2023/11/19 00:01:35;0.00;0.00;0.62;0.00;0.00;0.62;2.00;1.20;;;20.80;27.20;;;;;;2256654;61;20447;-63
2023/11/19 00:04:20;0.00;0.00;0.62;0.00;0.00;0.62;2.30;1.50;;;20.70;27.10;;;;;;2259842;61;20412;-54
2023/11/19 00:07:07;0.00;0.00;0.62;0.00;0.00;0.62;2.10;1.33;;;20.70;27.10;;;;;;2260411;61;20778;-59
2023/11/19 00:09:52;0.00;0.00;0.62;0.00;0.00;0.62;2.10;1.30;;;20.70;27.10;;;;;;2260218;61;20420;-62
2023/11/19 00:12:38;0.00;0.00;0.62;0.00;0.00;0.62;2.10;1.10;;;20.70;27.10;;;;;;2259648;61;20779;-59
2023/11/19 00:15:24;0.00;0.00;0.62;0.00;0.00;0.62;1.83;1.20;;;20.70;27.10;;;;;;2260320;61;20361;-60
2023/11/19 00:18:08;0.00;0.00;0.62;0.00;0.00;0.62;2.00;1.13;;;20.70;27.10;;;;;;2259956;61;20476;-58
2023/11/19 00:20:53;0.00;0.00;0.62;0.00;0.00;0.62;1.90;1.10;;;20.70;27.10;;;;;;2260208;61;20389;-59
2023/11/19 00:23:38;0.00;0.00;0.62;0.00;0.00;0.62;1.80;1.07;;;20.70;27.10;;;;;;2256752;61;20364;-57
2023/11/19 00:26:23;0.00;0.00;0.62;0.00;0.00;0.62;1.97;1.10;;;20.70;27.10;;;;;;2260100;61;20369;-60
2023/11/19 00:29:11;0.00;0.00;0.62;0.00;0.00;0.62;1.67;1.03;;;20.70;27.10;;;;;;2260252;61;20396;-59
2023/11/19 00:31:55;0.00;0.00;0.62;0.00;0.00;0.62;1.93;1.20;;;20.70;27.10;;;;;;2256704;61;20369;-60
2023/11/19 00:34:40;0.00;0.00;0.62;0.00;0.00;0.62;1.70;1.00;;;20.70;27.10;;;;;;2260013;61;20512;-59
2023/11/19 00:37:24;0.00;0.00;0.62;0.00;0.00;0.62;1.93;1.23;;;20.70;27.10;;;;;;2259901;61;20779;-58
2023/11/19 00:40:11;0.00;0.00;0.62;0.00;0.00;0.62;1.80;1.07;;;20.70;27.10;;;;;;2256915;61;20385;-63
2023/11/19 00:42:56;0.00;0.00;0.62;0.00;0.00;0.62;2.57;1.30;;;20.70;27.10;;;;;;2256741;61;20423;-58
2023/11/19 00:45:41;0.00;0.00;0.62;0.00;0.00;0.62;2.00;1.27;;;20.70;27.10;;;;;;2260103;61;20890;-56
2023/11/19 00:48:26;0.00;0.00;0.62;0.00;0.00;0.62;1.60;0.90;;;20.70;27.10;;;;;;2256822;61;20450;-58
2023/11/19 00:51:12;0.00;0.00;0.62;0.00;0.00;0.62;1.80;1.00;;;20.70;27.10;;;;;;2260300;61;20495;-60
2023/11/19 00:53:56;0.00;0.00;0.62;0.00;0.00;0.62;1.60;0.90;;;20.70;27.10;;;;;;2260039;61;20763;-58
2023/11/19 00:56:44;0.00;0.00;0.62;0.00;0.00;0.62;1.93;0.90;;;20.70;27.10;;;;;;2260786;61;20368;-56
2023/11/19 00:59:29;0.00;0.00;0.62;0.00;0.00;0.62;1.67;0.90;;;20.70;27.10;;;;;;2260751;61;20424;-61
2023/11/19 01:02:14;0.00;0.00;0.62;0.00;0.00;0.62;2.13;1.10;;;20.70;27.10;;;;;;2260454;61;20396;-58
2023/11/19 01:04:59;0.00;0.00;0.62;0.00;0.00;0.62;1.70;1.20;;;20.70;27.10;;;;;;2257631;61;20372;-61
2023/11/19 01:07:43;0.00;0.00;0.62;0.00;0.00;0.62;1.83;1.10;;;20.70;27.10;;;;;;2260814;61;20372;-57
2023/11/19 01:10:28;0.00;0.00;0.62;0.00;0.00;0.62;1.53;0.83;;;20.70;27.10;;;;;;2260492;61;20778;-58
2023/11/19 01:13:14;0.00;0.00;0.62;0.00;0.00;0.62;1.50;0.80;;;20.70;27.10;;;;;;2257359;61;20787;-61
2023/11/19 01:15:59;0.00;0.00;0.62;0.00;0.00;0.62;1.40;0.80;;;20.70;27.10;;;;;;2260697;61;20369;-59
2023/11/19 01:18:43;0.00;0.00;0.62;0.00;0.00;0.62;1.67;0.83;;;20.70;27.10;;;;;;2260570;61;20369;-57
2023/11/19 01:21:28;0.00;0.00;0.62;0.00;0.00;0.62;1.60;0.90;;;20.70;27.10;;;;;;2257577;61;20447;-52
2023/11/19 01:24:14;0.00;0.00;0.62;0.00;0.00;0.62;1.47;0.90;;;20.70;27.10;;;;;;2260924;61;20368;-60
2023/11/19 01:26:59;0.00;0.00;0.62;0.00;0.00;0.62;1.50;0.90;;;20.70;27.10;;;;;;2257506;61;20360;-58
2023/11/19 01:29:45;0.00;0.00;0.62;0.00;0.00;0.62;1.70;1.07;;;20.70;27.10;;;;;;2257667;61;20435;-57
2023/11/19 01:32:30;0.00;0.00;0.62;0.00;0.00;0.62;1.30;0.80;;;20.70;27.10;;;;;;2259962;61;20365;-57
2023/11/19 01:35:14;0.00;0.00;0.62;0.00;0.00;0.62;1.50;0.80;;;20.70;27.10;;;;;;2257554;61;20393;-58
2023/11/19 01:37:59;0.00;0.00;0.62;0.00;0.00;0.62;1.70;0.90;;;20.70;27.10;;;;;;2260637;61;20373;-56
2023/11/19 01:40:44;0.00;0.00;0.62;0.00;0.00;0.62;1.53;0.83;;;20.70;27.10;;;;;;2260494;61;20420;-59
2023/11/19 01:43:36;0.00;0.00;0.62;0.00;0.00;0.62;1.70;0.93;;;20.70;27.10;;;;;;2260508;61;20365;-56
2023/11/19 01:46:21;0.00;0.00;0.62;0.00;0.00;0.62;1.50;0.77;;;20.70;27.20;;;;;;2261015;61;20762;-59
2023/11/19 01:49:08;0.00;0.00;0.62;0.00;0.00;0.62;1.50;0.73;;;20.70;27.10;;;;;;2259997;61;20442;-54
2023/11/19 01:51:53;0.00;0.00;0.62;0.00;0.00;0.62;1.70;0.87;;;20.70;27.20;;;;;;2260305;61;20771;-56
2023/11/19 01:54:38;0.00;0.00;0.62;0.00;0.00;0.62;1.60;0.90;;;20.70;27.20;;;;;;2257121;61;20384;-56
2023/11/19 01:57:23;0.00;0.00;0.62;0.00;0.00;0.62;1.50;0.80;;;20.70;27.20;;;;;;2260804;61;20391;-57
2023/11/19 02:00:13;0.00;0.00;0.62;0.00;0.00;0.62;1.50;0.80;;;20.70;27.20;;;;;;2257530;61;20432;-57
2023/11/19 02:03:04;0.00;0.00;0.62;0.00;0.00;0.62;1.50;0.80;;;20.70;27.20;;;;;;2256905;61;20381;-58
2023/11/19 02:05:50;0.00;0.00;0.62;0.00;0.00;0.62;1.40;0.80;;;20.70;27.20;;;;;;2257164;61;20411;-57
2023/11/19 02:08:35;0.00;0.00;0.62;0.00;0.00;0.62;1.90;1.07;;;20.70;27.20;;;;;;2260609;61;20774;-58
2023/11/19 02:11:20;0.00;0.00;0.62;0.00;0.00;0.62;1.50;0.90;;;20.70;27.20;;;;;;2260389;61;20596;-56
2023/11/19 02:14:04;0.00;0.00;0.62;0.00;0.00;0.62;1.87;0.90;;;20.70;27.20;;;;;;2260786;61;20478;-59
2023/11/19 02:16:49;0.00;0.00;0.62;0.00;0.00;0.62;1.50;0.87;;;20.70;27.20;;;;;;2260359;61;20380;-57
2023/11/19 02:19:36;0.00;0.00;0.62;0.00;0.00;0.62;1.30;0.70;;;20.70;27.20;;;;;;2258225;61;20487;-57
2023/11/19 02:22:20;0.00;0.00;0.62;0.00;0.00;0.62;1.93;0.90;;;20.70;27.30;;;;;;2249245;61;20420;-57
2023/11/19 02:25:12;0.00;0.00;0.62;0.00;0.00;0.62;1.83;0.80;;;20.70;27.30;;;;;;2254752;61;20790;-57
2023/11/19 02:28:01;0.00;0.00;0.62;0.00;0.00;0.62;1.87;0.90;;;20.70;27.30;;;;;;2257422;61;20357;-58
2023/11/19 02:30:46;0.00;0.00;0.62;0.00;0.00;0.62;1.40;0.80;;;20.70;27.30;;;;;;2260606;61;20427;-59
2023/11/19 02:33:30;0.00;0.00;0.62;0.00;0.00;0.62;1.47;0.70;;;20.70;27.30;;;;;;2259889;61;20432;-58
2023/11/19 02:36:16;0.00;0.00;0.62;0.00;0.00;0.62;1.40;0.70;;;20.70;27.30;;;;;;2257400;61;20373;-56
2023/11/19 02:39:03;0.00;0.00;0.62;0.00;0.00;0.62;1.40;0.77;;;20.70;27.30;;;;;;2257044;61;20365;-56
2023/11/19 02:41:50;0.00;0.00;0.62;0.00;0.00;0.62;1.87;0.87;;;20.70;27.30;;;;;;2259983;61;20361;-57
2023/11/19 02:44:36;0.00;0.00;0.62;0.00;0.00;0.62;1.53;0.83;;;20.70;27.30;;;;;;2260638;61;20398;-56
2023/11/19 02:47:23;0.00;0.00;0.62;0.00;0.00;0.62;1.77;0.73;;;20.70;27.30;;;;;;2260166;61;20772;-56
2023/11/19 02:50:14;0.00;0.00;0.62;0.00;0.00;0.62;1.37;0.70;;;20.70;27.30;;;;;;2260296;61;20417;-57
2023/11/19 02:52:58;0.00;0.00;0.62;0.00;0.00;0.62;1.60;0.90;;;20.70;27.30;;;;;;2257045;61;20425;-54
2023/11/19 02:55:48;0.00;0.00;0.62;0.00;0.00;0.62;1.50;0.80;;;20.70;27.30;;;;;;2260177;61;20357;-58
2023/11/19 02:58:34;0.00;0.00;0.62;0.00;0.00;0.62;1.40;0.80;;;20.70;27.30;;;;;;2260433;61;20357;-58
2023/11/19 03:01:29;0.00;0.00;0.62;0.00;0.00;0.62;1.40;0.80;;;20.70;27.30;;;;;;2256891;61;20415;-60
2023/11/19 03:04:17;0.00;0.00;0.62;0.00;0.00;0.62;1.60;0.80;;;20.70;27.30;;;;;;2260470;61;20504;-57
2023/11/19 03:07:02;0.00;0.00;0.62;0.00;0.00;0.62;1.40;0.70;;;20.70;27.30;;;;;;2260368;61;20779;-56
2023/11/19 03:09:46;0.00;0.00;0.62;0.00;0.00;0.62;1.20;0.60;;;20.70;27.40;;;;;;2260242;61;20412;-58
2023/11/19 03:12:31;0.00;0.00;0.62;0.00;0.00;0.62;1.47;0.77;;;20.70;27.30;;;;;;2260179;61;20364;-55
2023/11/19 03:15:16;0.00;0.00;0.62;0.00;0.00;0.62;1.50;0.70;;;20.70;27.30;;;;;;2260448;61;20978;-58
2023/11/19 03:18:02;0.00;0.00;0.62;0.00;0.00;0.62;1.43;0.67;;;20.70;27.40;;;;;;2257095;61;20419;-58
2023/11/19 03:23:43;0.00;0.00;0.62;0.00;0.00;0.62;1.20;0.60;;;20.70;27.40;;;;;;2257664;61;20958;-59
2023/11/19 03:26:28;0.00;0.00;0.62;0.00;0.00;0.62;1.60;0.80;;;20.70;27.40;;;;;;2256494;61;20401;-55
2023/11/19 03:29:12;0.00;0.00;0.62;0.00;0.00;0.62;1.60;0.80;;;20.70;27.40;;;;;;2256452;61;20417;-58
2023/11/19 03:31:57;0.00;0.00;0.62;0.00;0.00;0.62;2.00;0.70;;;20.70;27.40;;;;;;2251677;61;20761;-57
2023/11/19 03:34:44;0.00;0.00;0.62;0.00;0.00;0.62;1.30;0.70;;;20.70;27.40;;;;;;2252101;61;20429;-56
2023/11/19 03:37:28;0.00;0.00;0.62;0.00;0.00;0.62;1.30;0.70;;;20.70;27.40;;;;;;2252363;61;20541;-56
2023/11/19 03:40:14;0.00;0.00;0.62;0.00;0.00;0.62;1.60;0.70;;;20.70;27.40;;;;;;2252836;61;20414;-55
2023/11/19 03:42:59;0.00;0.00;0.62;0.00;0.00;0.62;1.60;0.80;;;20.70;27.40;;;;;;2252053;61;20372;-59
2023/11/19 03:45:43;0.00;0.00;0.62;0.00;0.00;0.62;1.50;0.70;;;20.70;27.40;;;;;;2252183;61;20362;-55
2023/11/19 03:48:28;0.00;0.00;0.62;0.00;0.00;0.62;1.70;0.77;;;20.70;27.40;;;;;;2252357;61;20759;-58
2023/11/19 03:54:18;0.00;0.00;0.62;0.00;0.00;0.62;1.30;0.70;;;20.70;27.40;;;;;;2257876;61;20818;-57
2023/11/19 03:57:03;0.00;0.00;0.62;0.00;0.00;0.62;1.50;0.77;;;20.70;27.40;;;;;;2253108;61;20365;-59
2023/11/19 03:59:48;0.00;0.00;0.62;0.00;0.00;0.62;1.53;0.80;;;20.70;27.40;;;;;;2256493;61;21023;-58
2023/11/19 04:02:33;0.00;0.00;0.62;0.00;0.00;0.62;1.30;0.67;;;20.70;27.40;;;;;;2255930;61;20514;-57
2023/11/19 04:05:18;0.00;0.00;0.62;0.00;0.00;0.62;1.47;0.67;;;20.70;27.40;;;;;;2256486;61;20450;-57
2023/11/19 04:08:04;0.00;0.00;0.62;0.00;0.00;0.62;1.40;0.70;;;20.70;27.40;;;;;;2252740;61;20365;-58
2023/11/19 04:10:50;0.00;0.00;0.62;0.00;0.00;0.62;1.30;0.60;;;20.70;27.40;;;;;;2256409;61;20382;-56
2023/11/19 04:13:35;0.00;0.00;0.62;0.00;0.00;0.62;1.30;0.70;;;20.70;27.40;;;;;;2255697;61;20447;-60
2023/11/19 04:16:20;0.00;0.00;0.62;0.00;0.00;0.62;1.40;0.80;;;20.70;27.40;;;;;;2255966;61;20764;-59
2023/11/19 04:19:04;0.00;0.00;0.62;0.00;0.00;0.62;1.40;0.60;;;20.70;27.50;;;;;;2256267;61;20420;-59
2023/11/19 04:21:48;0.00;0.00;0.62;0.00;0.00;0.62;1.30;0.70;;;20.70;27.50;;;;;;2253398;61;20913;-57
2023/11/19 04:24:33;0.00;0.00;0.62;0.00;0.00;0.62;1.50;0.73;;;20.70;27.50;;;;;;2252019;61;20395;-59
2023/11/19 04:27:19;0.00;0.00;0.62;0.00;0.00;0.62;1.40;0.70;;;20.70;27.50;;;;;;2252268;61;20678;-61
2023/11/19 04:30:05;0.00;0.00;0.62;0.00;0.00;0.62;1.20;0.60;;;20.70;27.50;;;;;;2252307;61;20398;-59
2023/11/19 04:32:50;0.00;0.00;0.62;0.00;0.00;0.62;1.30;0.70;;;20.70;27.50;;;;;;2252295;61;20447;-60
2023/11/19 04:35:35;0.00;0.00;0.62;0.00;0.00;0.62;1.30;0.70;;;20.70;27.50;;;;;;2252418;61;20437;-59
2023/11/19 04:38:19;0.00;0.00;0.62;0.00;0.00;0.62;1.50;0.70;;;20.70;27.50;;;;;;2252556;61;20382;-62
2023/11/19 04:41:05;0.00;0.00;0.62;0.00;0.00;0.62;1.30;0.70;;;20.80;27.60;;;;;;2252718;61;20475;-55
2023/11/19 04:43:51;0.00;0.00;0.62;0.00;0.00;0.62;1.30;0.70;;;20.70;27.50;;;;;;2252639;61;20370;-59
2023/11/19 04:46:36;0.00;0.00;0.62;0.00;0.00;0.62;1.23;0.60;;;20.70;27.50;;;;;;2252044;61;20425;-59
2023/11/19 04:49:20;0.00;0.00;0.62;0.00;0.00;0.62;2.10;0.90;;;20.70;27.50;;;;;;2253129;61;20386;-62
2023/11/19 04:52:05;0.00;0.00;0.62;0.00;0.00;0.62;1.37;0.70;;;20.70;27.50;;;;;;2252191;61;20495;-61
2023/11/19 04:54:49;0.00;0.00;0.62;0.00;0.00;0.62;1.97;0.80;;;20.70;27.50;;;;;;2252763;61;20429;-58
2023/11/19 04:57:34;0.00;0.00;0.62;0.00;0.00;0.62;1.30;0.70;;;20.70;27.50;;;;;;2252882;61;21060;-61
2023/11/19 05:00:21;0.00;0.00;0.62;0.00;0.00;0.62;1.40;0.70;;;20.70;27.50;;;;;;2252706;61;20387;-61
2023/11/19 05:03:06;0.00;0.00;0.62;0.00;0.00;0.62;1.40;0.80;;;20.70;27.50;;;;;;2252314;61;20819;-58
2023/11/19 05:05:51;0.00;0.00;0.62;0.00;0.00;0.62;1.33;0.60;;;20.70;27.50;;;;;;2252786;61;20363;-59
2023/11/19 05:08:36;0.00;0.00;0.62;0.00;0.00;0.62;1.30;0.80;;;20.70;27.50;;;;;;2252396;61;20897;-58
2023/11/19 05:11:20;0.00;0.00;0.62;0.00;0.00;0.62;1.30;0.70;;;20.70;27.60;;;;;;2253023;61;20430;-58
2023/11/19 05:14:05;0.00;0.00;0.62;0.00;0.00;0.62;1.30;0.70;;;20.70;27.50;;;;;;2252377;61;20394;-59
2023/11/19 05:16:51;0.00;0.00;0.62;0.00;0.00;0.62;1.40;0.93;;;20.70;27.50;;;;;;2252374;61;20459;-59
2023/11/19 05:19:36;0.00;0.00;0.62;0.00;0.00;0.62;2.00;0.67;;;20.70;27.50;;;;;;2252654;61;20638;-61
2023/11/19 05:22:20;0.00;0.00;0.62;0.00;0.00;0.62;1.43;0.70;;;20.70;27.50;;;;;;2252109;61;20471;-58
2023/11/19 05:25:07;0.00;0.00;0.62;0.00;0.00;0.62;1.30;0.60;;;20.80;27.70;;;;;;2252914;61;20397;-57
2023/11/19 05:27:51;0.00;0.00;0.62;0.00;0.00;0.62;1.53;0.80;;;20.70;27.60;;;;;;2252913;61;20394;-61
2023/11/19 05:30:35;0.00;0.00;0.62;0.00;0.00;0.62;1.43;0.60;;;20.70;27.60;;;;;;2252319;61;20467;-55
2023/11/19 05:33:21;0.00;0.00;0.62;0.00;0.00;0.62;1.23;0.60;;;20.80;27.70;;;;;;2252180;61;20374;-59
2023/11/19 05:36:08;0.00;0.00;0.62;0.00;0.00;0.62;1.43;0.90;;;20.80;27.70;;;;;;2252434;61;20371;-62
2023/11/19 05:38:52;0.00;0.00;0.62;0.00;0.00;0.62;1.40;0.60;;;20.80;27.70;;;;;;2252645;61;20451;-60
2023/11/19 05:41:36;0.00;0.00;0.62;0.00;0.00;0.62;1.50;0.80;;;20.70;27.60;;;;;;2252363;61;20920;-56
2023/11/19 05:44:21;0.00;0.00;0.62;0.00;0.00;0.62;1.40;0.67;;;20.70;27.60;;;;;;2252581;61;20405;-60
2023/11/19 05:47:06;0.00;0.00;0.62;0.00;0.00;0.62;1.20;0.60;;;20.80;27.70;;;;;;2252557;61;20584;-59
2023/11/19 05:49:53;0.00;0.00;0.62;0.00;0.00;0.62;1.87;0.83;;;20.80;27.70;;;;;;2252552;61;20426;-56
2023/11/19 05:52:38;0.00;0.00;0.62;0.00;0.00;0.62;2.27;0.70;;;20.80;27.70;;;;;;2251914;61;20407;-60
2023/11/19 05:55:24;0.00;0.00;0.62;0.00;0.00;0.62;1.50;0.70;;;20.80;27.70;;;;;;2252497;61;20457;-58
2023/11/19 05:58:11;0.00;0.00;0.62;0.00;0.00;0.62;2.03;0.70;;;20.80;27.70;;;;;;2252540;61;20453;-55
2023/11/19 06:00:56;0.00;0.00;0.62;0.00;0.00;0.62;1.60;0.80;;;20.80;27.80;;;;;;2252615;61;20430;-59
2023/11/19 06:03:43;0.00;0.00;0.62;0.00;0.00;0.62;2.07;0.90;;;20.80;27.80;;;;;;2252294;61;20877;-60
2023/11/19 06:06:29;0.00;0.00;0.62;0.00;0.00;0.62;2.50;0.97;;;20.80;27.80;;;;;;2252331;61;20366;-59
2023/11/19 06:09:14;0.00;0.00;0.62;0.00;0.00;0.62;1.50;0.80;;;20.80;27.80;;;;;;2252436;61;20838;-56
2023/11/19 06:12:01;0.00;0.00;0.62;0.00;0.00;0.62;1.50;0.80;;;20.80;27.80;;;;;;2252408;61;20363;-59
2023/11/19 06:14:45;0.00;0.00;0.62;0.00;0.00;0.62;1.50;0.83;;;20.80;27.80;;;;;;2252154;61;20441;-57
2023/11/19 06:17:30;0.00;0.00;0.62;0.00;0.00;0.62;1.30;0.70;;;20.80;27.80;;;;;;2252539;61;20860;-56
2023/11/19 06:20:14;0.00;0.00;0.62;0.00;0.00;0.62;2.70;0.90;;;20.80;27.80;;;;;;2252521;61;20386;-57
2023/11/19 06:23:01;0.00;0.00;0.62;0.00;0.00;0.62;1.40;0.80;;;20.80;27.80;;;;;;2252345;61;20494;-58
2023/11/19 06:25:45;0.00;0.00;0.62;0.00;0.00;0.62;1.30;0.70;;;20.80;27.80;;;;;;2252431;61;20378;-57
2023/11/19 06:28:30;0.00;0.00;0.62;0.00;0.00;0.62;1.90;1.10;;;20.80;27.80;;;;;;2252220;61;20421;-59
2023/11/19 06:31:16;0.00;0.00;0.62;0.00;0.00;0.62;1.40;0.90;;;20.80;27.80;;;;;;2252390;61;20386;-58
2023/11/19 06:34:00;0.00;0.00;0.62;0.00;0.00;0.62;2.47;1.00;;;20.80;28.40;;;;;;2252609;61;20391;-59
2023/11/19 06:36:45;0.00;0.00;0.62;0.00;0.00;0.62;1.63;0.90;;;20.80;27.90;;;;;;2251909;61;20394;-61
2023/11/19 06:39:31;0.00;0.00;0.62;0.00;0.00;0.62;1.67;0.80;;;20.80;27.90;;;;;;2252628;61;20438;-59
2023/11/19 06:42:15;0.00;0.00;0.62;0.00;0.00;0.62;1.30;0.70;;;20.80;27.90;;;;;;2252228;61;20367;-61
2023/11/19 06:45:00;0.00;0.00;0.62;0.00;0.00;0.62;1.40;0.80;;;20.80;27.90;;;;;;2252314;61;20410;-59
2023/11/19 06:47:44;0.00;0.00;0.62;0.00;0.00;0.62;1.70;0.80;;;20.80;27.90;;;;;;2252350;61;20441;-59
2023/11/19 06:50:29;0.00;0.00;0.62;0.00;0.00;0.62;2.43;0.90;;;20.80;27.90;;;;;;2252076;61;20442;-59
2023/11/19 06:53:14;0.00;0.00;0.62;0.00;0.00;0.62;1.50;0.80;;;20.80;27.90;;;;;;2252207;61;20830;-59
2023/11/19 06:56:00;0.00;0.00;0.62;0.00;0.00;0.62;1.90;1.00;;;20.80;27.90;;;;;;2252516;61;20402;-65
2023/11/19 06:58:45;0.00;0.00;0.62;0.00;0.00;0.62;2.03;0.80;;;20.80;27.90;;;;;;2252201;61;20969;-54
2023/11/19 07:01:35;0.00;0.00;0.62;0.00;0.00;0.62;1.47;0.70;;;20.80;27.90;;;;;;2252413;61;20390;-62
2023/11/19 07:04:22;0.00;0.00;0.62;0.00;0.00;0.62;1.30;0.70;;;20.80;28.00;;;;;;2252386;61;20367;-58
2023/11/19 07:07:06;0.00;0.00;0.62;0.00;0.00;0.62;2.03;0.80;;;20.80;28.00;;;;;;2252241;61;20762;-59
2023/11/19 07:09:51;0.00;0.00;0.62;0.00;0.00;0.62;1.90;0.80;;;20.80;28.00;;;;;;2252220;61;20811;-61
2023/11/19 07:12:37;0.00;0.00;0.62;0.00;0.00;0.62;1.50;0.80;;;20.80;27.90;;;;;;2251608;61;20366;-61
2023/11/19 07:15:22;0.00;0.00;0.62;0.00;0.00;0.62;1.57;0.80;;;20.80;28.00;;;;;;2252392;61;20387;-57
2023/11/19 07:18:06;0.00;0.00;0.62;0.00;0.00;0.62;1.60;1.10;;;20.80;28.00;;;;;;2252329;61;20406;-58
2023/11/19 07:20:51;0.00;0.00;0.62;0.00;0.00;0.62;2.00;0.80;;;20.90;28.10;;;;;;2252111;61;20405;-59
2023/11/19 07:23:35;0.00;0.00;0.62;0.00;0.00;0.62;1.80;0.80;;;20.90;28.10;;;;;;2252022;61;20917;-58
2023/11/19 07:26:20;0.00;0.00;0.62;0.00;0.00;0.62;1.53;0.87;;;20.90;28.10;;;;;;2252443;61;20376;-59
2023/11/19 07:29:07;0.00;0.00;0.62;0.00;0.00;0.62;1.67;0.70;;;20.90;28.10;;;;;;2252019;61;20410;-59
2023/11/19 07:31:51;0.00;0.00;0.62;0.00;0.00;0.62;1.60;0.80;;;20.90;28.10;;;;;;2251949;61;20774;-59
2023/11/19 07:34:36;0.00;0.00;0.62;0.00;0.00;0.62;1.80;1.10;;;20.90;28.10;;;;;;2251964;61;20393;-57
2023/11/19 07:37:21;0.00;0.00;0.62;0.00;0.00;0.62;2.47;1.13;;;20.90;28.10;;;;;;2252362;61;20394;-58
2023/11/19 07:40:07;0.00;0.00;0.62;0.00;0.00;0.62;3.83;0.90;;;20.90;28.10;;;;;;2252433;61;20913;-61
2023/11/19 07:42:53;0.00;0.00;0.62;0.00;0.00;0.62;1.50;0.70;;;20.90;28.10;;;;;;2251418;61;20406;-59
2023/11/19 07:45:40;0.00;0.00;0.62;0.00;0.00;0.62;3.07;1.17;;;20.90;28.10;;;;;;2252398;61;20810;-61
2023/11/19 07:48:25;0.00;0.00;0.62;0.00;0.00;0.62;2.73;1.07;;;20.90;28.10;;;;;;2252299;61;20410;-57
2023/11/19 07:51:12;0.00;0.00;0.62;0.00;0.00;0.62;2.00;1.10;;;20.90;28.10;;;;;;2251671;61;20401;-60
2023/11/19 07:53:56;0.00;0.00;0.62;0.00;0.00;0.62;2.03;1.00;;;20.90;28.10;;;;;;2252058;61;20436;-61
2023/11/19 07:56:41;0.00;0.00;0.62;0.00;0.00;0.62;3.00;1.10;;;20.90;28.20;;;;;;2252145;61;20821;-62
2023/11/19 07:59:25;0.00;0.00;0.62;0.00;0.00;0.62;2.30;1.00;;;20.90;28.70;;;;;;2252361;61;20366;-62
2023/11/19 08:02:12;0.00;0.00;0.62;0.00;0.00;0.62;2.00;1.00;;;20.90;28.20;;;;;;2251350;61;20370;-58
2023/11/19 08:04:57;0.00;0.00;0.62;0.00;0.00;0.62;3.97;1.00;;;20.90;28.20;;;;;;2252428;61;20370;-58
2023/11/19 08:07:41;0.00;0.00;0.62;0.00;0.00;0.62;2.77;1.00;;;20.90;28.20;;;;;;2253200;61;20417;-56
2023/11/19 08:10:26;0.00;0.00;0.62;0.00;0.00;0.62;2.07;1.20;;;20.90;28.20;;;;;;2261172;56;20408;-59
2023/11/19 08:13:12;0.00;0.00;0.62;0.00;0.00;0.62;3.17;1.27;;;20.90;28.20;;;;;;2256366;61;20373;-57
2023/11/19 08:15:58;0.00;0.00;0.62;0.00;0.00;0.62;4.63;1.33;;;20.90;28.20;;;;;;2256925;61;20421;-57
2023/11/19 08:18:44;0.00;0.00;0.62;0.00;0.00;0.62;2.80;1.17;;;20.90;28.20;;;;;;2257033;61;20443;-61
2023/11/19 08:21:29;0.00;0.00;0.62;0.00;0.00;0.62;3.30;1.20;;;21.00;28.30;;;;;;2256783;61;20390;-59
2023/11/19 08:24:13;0.00;0.00;0.62;0.00;0.00;0.62;2.13;1.00;;;20.90;28.20;;;;;;2257023;61;20409;-58
2023/11/19 08:26:58;0.00;0.00;0.62;0.00;0.00;0.62;1.80;0.90;;;20.90;28.20;;;;;;2256953;61;20760;-58
2023/11/19 08:29:42;0.00;0.00;0.62;0.00;0.00;0.62;3.07;1.23;;;21.00;28.30;;;;;;2256904;61;20417;-58
2023/11/19 08:32:27;0.00;0.00;0.62;0.00;0.00;0.62;2.80;1.00;;;21.00;28.30;;;;;;2256658;61;20365;-60
2023/11/19 08:35:13;0.00;0.00;0.62;0.00;0.00;0.62;2.33;1.03;;;21.00;28.30;;;;;;2256580;61;20436;-59
2023/11/19 08:37:59;0.00;0.00;0.62;0.00;0.00;0.62;2.47;1.20;;;21.00;28.40;;;;;;2253599;61;20366;-55
2023/11/19 08:40:43;0.00;0.00;0.62;0.00;0.00;0.62;3.70;1.07;;;21.00;28.30;;;;;;2257142;61;20408;-61
2023/11/19 08:43:29;0.00;0.00;0.62;0.00;0.00;0.62;2.10;1.10;;;21.00;28.30;;;;;;2253023;61;20907;-59
2023/11/19 08:46:13;0.00;0.00;0.62;0.00;0.00;0.62;3.13;1.07;;;21.00;28.30;;;;;;2257016;61;20421;-57
2023/11/19 08:48:58;0.00;0.00;0.62;0.00;0.00;0.62;2.40;1.10;;;21.00;28.40;;;;;;2256510;61;20366;-57
2023/11/19 08:51:45;0.00;0.00;0.62;0.00;0.00;0.62;2.27;1.10;;;21.00;28.30;;;;;;2256754;61;20374;-58
2023/11/19 08:54:29;0.00;0.00;0.62;0.00;0.00;0.62;2.73;1.20;;;21.00;28.50;;;;;;2257108;61;20793;-56
2023/11/19 08:57:14;0.00;0.00;0.62;0.00;0.00;0.62;2.87;1.23;;;21.00;28.40;;;;;;2256511;61;20420;-61
2023/11/19 08:59:59;0.00;0.00;0.62;0.00;0.00;0.62;2.60;1.20;;;21.00;28.40;;;;;;2256742;61;20644;-59
2023/11/19 09:02:43;0.00;0.00;0.62;0.00;0.00;0.62;3.80;1.20;;;21.00;28.40;;;;;;2253242;61;20398;-61
2023/11/19 09:05:28;0.00;0.00;0.62;0.00;0.00;0.62;4.53;1.40;;;21.00;28.40;;;;;;2256560;61;20341;-55
2023/11/19 09:08:14;0.00;0.00;0.62;0.00;0.00;0.62;4.07;1.20;;;21.00;28.40;;;;;;2256989;61;20835;-59
2023/11/19 09:10:58;0.00;0.00;0.62;0.00;0.00;0.62;4.77;1.97;;;21.00;28.40;;;;;;2256246;61;20390;-58
2023/11/19 09:13:45;0.00;0.00;0.62;0.00;0.00;0.62;3.70;1.70;;;21.00;28.40;;;;;;2256398;61;20369;-57
2023/11/19 09:16:29;0.00;0.00;0.62;0.00;0.00;0.62;4.63;1.43;;;21.00;28.40;;;;;;2256692;61;20366;-60
2023/11/19 09:19:14;0.00;0.00;0.62;0.00;0.00;0.62;4.37;1.47;;;21.00;28.40;;;;;;2256608;61;20366;-58
2023/11/19 09:21:58;0.00;0.00;0.62;0.00;0.00;0.62;3.37;1.43;;;21.00;28.40;;;;;;2256247;61;20438;-60
2023/11/19 09:24:44;0.00;0.00;0.62;0.00;0.00;0.62;4.20;1.80;;;21.00;28.40;;;;;;2256719;61;20401;-60
2023/11/19 09:27:29;0.00;0.00;0.62;0.00;0.00;0.62;1.60;1.10;;;21.00;28.40;;;;;;2256547;61;20394;-60
2023/11/19 09:30:14;0.00;0.00;0.62;0.00;0.00;0.62;2.47;1.73;;;21.10;28.50;;;;;;2253471;61;20432;-60
2023/11/19 09:32:59;0.00;0.00;0.62;0.00;0.00;0.62;2.80;1.10;;;21.10;28.50;;;;;;2255978;61;20373;-63
2023/11/19 09:35:44;0.00;0.00;0.62;0.00;0.00;0.62;2.47;1.30;;;21.10;28.50;;;;;;2256880;61;20389;-60
2023/11/19 09:38:29;0.00;0.00;0.62;0.00;0.00;0.62;3.30;1.40;;;21.10;28.50;;;;;;2256886;61;20871;-61
2023/11/19 09:41:16;0.00;0.00;0.62;0.00;0.00;0.62;4.97;1.40;;;21.10;28.50;;;;;;2256288;61;20382;-58
2023/11/19 09:44:01;0.00;0.00;0.62;0.00;0.00;0.62;2.73;1.30;;;21.10;28.50;;;;;;2256624;61;20871;-55
2023/11/19 09:46:46;0.00;0.00;0.62;0.00;0.00;0.62;3.23;1.50;;;21.10;28.50;;;;;;2256527;61;20373;-57
2023/11/19 09:49:31;0.00;0.00;0.62;0.00;0.00;0.62;2.30;1.37;;;21.10;28.50;;;;;;2256427;61;20362;-59
2023/11/19 09:52:15;0.00;0.00;0.62;0.00;0.00;0.62;5.00;1.83;;;21.10;28.50;;;;;;2256429;61;20413;-59
2023/11/19 09:55:00;0.00;0.00;0.62;0.00;0.00;0.62;3.57;1.80;;;21.10;28.50;;;;;;2256693;61;20448;-61
2023/11/19 09:57:49;0.00;0.00;0.62;0.00;0.00;0.62;2.50;1.70;;;21.10;28.50;;;;;;2256695;61;20826;-59
2023/11/19 10:00:33;0.00;0.00;0.62;0.00;0.00;0.62;3.27;1.90;;;21.20;28.60;;;;;;2256758;61;20386;-60
2023/11/19 10:03:18;0.00;0.00;0.62;0.00;0.00;0.62;4.17;1.83;;;21.20;28.60;;;;;;2255912;61;20385;-58
2023/11/19 10:06:04;0.00;0.00;0.62;0.00;0.00;0.62;3.13;1.67;;;21.20;28.60;;;;;;2256637;61;20454;-55
2023/11/19 10:08:48;0.00;0.00;0.62;0.00;0.00;0.62;4.17;2.43;;;21.20;28.60;;;;;;2256684;61;20438;-56
2023/11/19 10:11:33;0.00;0.00;0.62;0.00;0.00;0.62;3.93;1.93;;;21.20;28.60;;;;;;2256093;61;20389;-59
2023/11/19 10:14:22;0.00;0.00;0.62;0.00;0.00;0.62;4.87;2.53;;;21.20;28.60;;;;;;2256432;61;20814;-56
2023/11/19 10:17:08;0.00;0.00;0.62;0.00;0.00;0.62;4.20;2.13;;;21.20;28.60;;;;;;2256565;61;20908;-59
2023/11/19 10:19:52;0.00;0.00;0.62;0.00;0.00;0.62;4.20;2.40;;;21.20;28.60;;;;;;2256669;61;20440;-61
2023/11/19 10:22:37;0.00;0.00;0.62;0.00;0.00;0.62;4.80;2.30;;;21.20;28.60;;;;;;2253069;61;20370;-59
2023/11/19 10:25:24;0.00;0.00;0.62;0.00;0.00;0.62;5.03;2.83;;;21.20;28.60;;;;;;2256298;61;20856;-56
2023/11/19 10:28:08;0.00;0.00;0.62;0.00;0.00;0.62;4.37;2.33;;;21.20;28.60;;;;;;2256959;61;20888;-58
2023/11/19 10:30:56;0.00;0.00;0.62;0.00;0.00;0.62;3.87;2.27;;;21.30;28.80;;;;;;2256630;61;20389;-58
2023/11/19 10:33:43;0.00;0.00;0.62;0.00;0.00;0.62;6.60;2.50;;;21.30;28.70;;;;;;2255929;61;20413;-58
2023/11/19 10:36:40;0.00;0.00;0.62;0.00;0.00;0.62;5.30;2.70;;;21.20;28.70;;;;;;2256551;61;20408;-59
2023/11/19 10:39:48;0.00;0.00;0.62;0.00;0.00;0.62;3.60;2.40;;;21.30;28.70;;;;;;2256443;61;20498;-53
2023/11/19 10:42:32;0.00;0.00;0.62;0.00;0.00;0.62;3.50;2.30;;;21.30;28.80;;;;;;2256396;61;20420;-58
2023/11/19 10:45:24;0.00;0.00;0.62;0.00;0.00;0.62;4.80;2.43;;;21.30;28.70;;;;;;2256317;61;20456;-60
2023/11/19 10:48:12;0.00;0.00;0.62;0.00;0.00;0.62;3.93;2.07;;;21.30;28.70;;;;;;2256172;61;20370;-59
2023/11/19 10:50:57;0.00;0.00;0.62;0.00;0.00;0.62;3.03;2.50;;;21.40;28.70;;;;;;2256588;61;20433;-57
2023/11/19 10:53:44;0.00;0.00;0.62;0.00;0.00;0.62;5.33;3.43;;;21.40;28.80;;;;;;2252922;61;20358;-56
2023/11/19 10:56:31;0.00;0.00;0.62;0.00;0.00;0.62;5.80;3.00;;;21.40;28.70;;;;;;2256151;61;20366;-61
2023/11/19 10:59:18;0.00;0.00;0.62;0.00;0.00;0.62;4.50;2.97;;;21.30;28.60;;;;;;2256395;61;20362;-59